logo
Search for airport 
image banner adimage banner adimage banner ad
image banner ad

YRTN - Railton

Located in Railton, Australia

ICAO - , IATA -

Data provided by Airmate  

General information

Coordinates: S41°20'54" E146°25'9"
Elevation is 238 feet MSL.
Magnetic variation is 14° East
View others Airports in Tasmania

Operational data

Special qualification required
Current time UTC:
Current local time:
Weather at : YMLT - Launceston ( 70 km )
METAR: YMLT 171930Z AUTO 20006KT 9999 // SCT030 02/01 Q1020 RF00.0/000.0
View NOTAMs / SUP AIP / TFR affecting this airport [VIEW]
Communications frequencies: [VIEW]

Runways:

Airport contact information

Address: Railton Australia

Satellite view of YRTN